sensor_id;sensor_type;location;lat;lon;timestamp;P1;durP1;ratioP1;P2;durP2;ratioP2
77520;SDS011;66633;47.628;19.158;2023-07-13T00:01:49;8.63;;;4.22;;
77520;SDS011;66633;47.628;19.158;2023-07-13T00:04:19;7.75;;;3.88;;
77520;SDS011;66633;47.628;19.158;2023-07-13T00:06:44;8.68;;;4.10;;
77520;SDS011;66633;47.628;19.158;2023-07-13T00:09:11;6.65;;;3.10;;
77520;SDS011;66633;47.628;19.158;2023-07-13T00:11:37;7.93;;;3.35;;
77520;SDS011;66633;47.628;19.158;2023-07-13T00:14:02;8.18;;;3.13;;
77520;SDS011;66633;47.628;19.158;2023-07-13T00:16:28;7.25;;;3.28;;
77520;SDS011;66633;47.628;19.158;2023-07-13T00:18:53;8.40;;;3.10;;
77520;SDS011;66633;47.628;19.158;2023-07-13T00:21:18;6.80;;;2.93;;
77520;SDS011;66633;47.628;19.158;2023-07-13T00:23:44;7.60;;;3.20;;
77520;SDS011;66633;47.628;19.158;2023-07-13T00:26:09;6.57;;;3.15;;
77520;SDS011;66633;47.628;19.158;2023-07-13T00:28:36;6.78;;;3.05;;
77520;SDS011;66633;47.628;19.158;2023-07-13T00:31:02;5.97;;;2.38;;
77520;SDS011;66633;47.628;19.158;2023-07-13T00:33:28;5.35;;;2.40;;
77520;SDS011;66633;47.628;19.158;2023-07-13T00:35:54;5.25;;;2.10;;
77520;SDS011;66633;47.628;19.158;2023-07-13T00:38:20;5.80;;;2.20;;
77520;SDS011;66633;47.628;19.158;2023-07-13T00:40:45;4.90;;;2.00;;
77520;SDS011;66633;47.628;19.158;2023-07-13T00:43:15;3.77;;;1.87;;
77520;SDS011;66633;47.628;19.158;2023-07-13T00:48:10;4.85;;;2.03;;
77520;SDS011;66633;47.628;19.158;2023-07-13T00:50:35;10.15;;;2.92;;
77520;SDS011;66633;47.628;19.158;2023-07-13T00:53:01;4.75;;;2.15;;
77520;SDS011;66633;47.628;19.158;2023-07-13T00:55:27;4.75;;;1.90;;
77520;SDS011;66633;47.628;19.158;2023-07-13T00:57:52;4.57;;;1.80;;
77520;SDS011;66633;47.628;19.158;2023-07-13T01:00:18;4.57;;;2.00;;
77520;SDS011;66633;47.628;19.158;2023-07-13T01:02:45;4.88;;;1.73;;
77520;SDS011;66633;47.628;19.158;2023-07-13T01:05:12;5.43;;;2.00;;
77520;SDS011;66633;47.628;19.158;2023-07-13T01:07:39;4.80;;;2.17;;
77520;SDS011;66633;47.628;19.158;2023-07-13T01:10:05;4.40;;;1.90;;
77520;SDS011;66633;47.628;19.158;2023-07-13T01:12:30;4.95;;;1.88;;
77520;SDS011;66633;47.628;19.158;2023-07-13T01:14:56;3.72;;;1.70;;
77520;SDS011;66633;47.628;19.158;2023-07-13T01:17:22;4.70;;;2.10;;
77520;SDS011;66633;47.628;19.158;2023-07-13T01:19:47;4.65;;;1.70;;
77520;SDS011;66633;47.628;19.158;2023-07-13T01:22:14;3.40;;;1.50;;
77520;SDS011;66633;47.628;19.158;2023-07-13T01:24:40;4.50;;;1.90;;
77520;SDS011;66633;47.628;19.158;2023-07-13T01:27:07;4.72;;;1.98;;
77520;SDS011;66633;47.628;19.158;2023-07-13T01:29:34;5.53;;;2.05;;
77520;SDS011;66633;47.628;19.158;2023-07-13T01:32:00;6.20;;;2.20;;
77520;SDS011;66633;47.628;19.158;2023-07-13T01:34:26;5.43;;;2.10;;
77520;SDS011;66633;47.628;19.158;2023-07-13T01:36:51;4.80;;;2.15;;
77520;SDS011;66633;47.628;19.158;2023-07-13T01:39:19;6.55;;;2.28;;
77520;SDS011;66633;47.628;19.158;2023-07-13T01:41:44;4.60;;;2.10;;
77520;SDS011;66633;47.628;19.158;2023-07-13T01:44:09;3.75;;;1.60;;
77520;SDS011;66633;47.628;19.158;2023-07-13T01:46:35;6.10;;;2.28;;
77520;SDS011;66633;47.628;19.158;2023-07-13T01:49:00;4.93;;;2.60;;
77520;SDS011;66633;47.628;19.158;2023-07-13T01:51:25;5.70;;;2.00;;
77520;SDS011;66633;47.628;19.158;2023-07-13T01:53:50;4.65;;;2.08;;
77520;SDS011;66633;47.628;19.158;2023-07-13T01:56:16;6.32;;;2.67;;
77520;SDS011;66633;47.628;19.158;2023-07-13T01:58:41;5.57;;;2.25;;
77520;SDS011;66633;47.628;19.158;2023-07-13T02:01:06;5.10;;;2.30;;
77520;SDS011;66633;47.628;19.158;2023-07-13T02:03:31;8.23;;;3.00;;
77520;SDS011;66633;47.628;19.158;2023-07-13T02:05:57;6.03;;;2.67;;
77520;SDS011;66633;47.628;19.158;2023-07-13T02:08:22;4.63;;;2.50;;
77520;SDS011;66633;47.628;19.158;2023-07-13T02:10:47;6.30;;;2.43;;
77520;SDS011;66633;47.628;19.158;2023-07-13T02:13:12;7.87;;;2.63;;
77520;SDS011;66633;47.628;19.158;2023-07-13T02:15:38;7.38;;;3.22;;
77520;SDS011;66633;47.628;19.158;2023-07-13T02:18:04;8.35;;;3.67;;
77520;SDS011;66633;47.628;19.158;2023-07-13T02:20:29;9.10;;;3.97;;
77520;SDS011;66633;47.628;19.158;2023-07-13T02:22:54;7.77;;;3.83;;
77520;SDS011;66633;47.628;19.158;2023-07-13T02:25:19;8.45;;;4.25;;
77520;SDS011;66633;47.628;19.158;2023-07-13T02:27:45;7.40;;;3.53;;
77520;SDS011;66633;47.628;19.158;2023-07-13T02:30:10;9.07;;;4.63;;
77520;SDS011;66633;47.628;19.158;2023-07-13T02:32:36;9.10;;;4.75;;
77520;SDS011;66633;47.628;19.158;2023-07-13T02:35:01;10.87;;;5.63;;
77520;SDS011;66633;47.628;19.158;2023-07-13T02:37:26;10.52;;;5.63;;
77520;SDS011;66633;47.628;19.158;2023-07-13T02:39:52;10.07;;;5.13;;
77520;SDS011;66633;47.628;19.158;2023-07-13T02:42:17;10.30;;;5.57;;
77520;SDS011;66633;47.628;19.158;2023-07-13T02:44:42;13.80;;;5.40;;
77520;SDS011;66633;47.628;19.158;2023-07-13T02:47:07;11.60;;;6.07;;
77520;SDS011;66633;47.628;19.158;2023-07-13T02:49:33;16.48;;;5.45;;
77520;SDS011;66633;47.628;19.158;2023-07-13T02:51:58;15.47;;;6.20;;
77520;SDS011;66633;47.628;19.158;2023-07-13T02:54:23;12.10;;;6.30;;
77520;SDS011;66633;47.628;19.158;2023-07-13T02:56:48;16.97;;;5.40;;
77520;SDS011;66633;47.628;19.158;2023-07-13T02:59:14;13.93;;;5.60;;
77520;SDS011;66633;47.628;19.158;2023-07-13T03:01:39;10.55;;;5.40;;
77520;SDS011;66633;47.628;19.158;2023-07-13T03:04:05;10.05;;;5.20;;
77520;SDS011;66633;47.628;19.158;2023-07-13T03:06:31;11.95;;;6.40;;
77520;SDS011;66633;47.628;19.158;2023-07-13T03:08:56;9.52;;;5.03;;
77520;SDS011;66633;47.628;19.158;2023-07-13T03:11:22;9.37;;;5.60;;
77520;SDS011;66633;47.628;19.158;2023-07-13T03:13:47;9.80;;;5.53;;
77520;SDS011;66633;47.628;19.158;2023-07-13T03:16:13;13.98;;;5.35;;
77520;SDS011;66633;47.628;19.158;2023-07-13T03:18:40;9.60;;;5.88;;
77520;SDS011;66633;47.628;19.158;2023-07-13T03:21:06;10.80;;;5.45;;
77520;SDS011;66633;47.628;19.158;2023-07-13T03:23:31;10.25;;;5.90;;
77520;SDS011;66633;47.628;19.158;2023-07-13T03:26:04;11.80;;;6.20;;
77520;SDS011;66633;47.628;19.158;2023-07-13T03:28:29;13.55;;;5.40;;
77520;SDS011;66633;47.628;19.158;2023-07-13T03:31:02;9.00;;;4.75;;
77520;SDS011;66633;47.628;19.158;2023-07-13T03:33:28;9.45;;;3.97;;
77520;SDS011;66633;47.628;19.158;2023-07-13T03:35:53;9.73;;;4.97;;
77520;SDS011;66633;47.628;19.158;2023-07-13T03:38:18;10.52;;;5.43;;
77520;SDS011;66633;47.628;19.158;2023-07-13T03:40:44;9.40;;;5.35;;
77520;SDS011;66633;47.628;19.158;2023-07-13T03:43:10;10.05;;;5.45;;
77520;SDS011;66633;47.628;19.158;2023-07-13T03:45:37;13.07;;;5.73;;
77520;SDS011;66633;47.628;19.158;2023-07-13T03:48:02;9.93;;;5.25;;
77520;SDS011;66633;47.628;19.158;2023-07-13T03:50:27;10.63;;;5.20;;
77520;SDS011;66633;47.628;19.158;2023-07-13T03:52:53;8.40;;;4.85;;
77520;SDS011;66633;47.628;19.158;2023-07-13T03:55:18;9.37;;;4.17;;
77520;SDS011;66633;47.628;19.158;2023-07-13T03:57:43;8.20;;;4.50;;
77520;SDS011;66633;47.628;19.158;2023-07-13T04:00:09;9.57;;;4.50;;
77520;SDS011;66633;47.628;19.158;2023-07-13T04:02:35;9.48;;;4.63;;
77520;SDS011;66633;47.628;19.158;2023-07-13T04:05:02;7.78;;;4.07;;
77520;SDS011;66633;47.628;19.158;2023-07-13T04:07:27;8.68;;;4.07;;
77520;SDS011;66633;47.628;19.158;2023-07-13T04:09:53;8.50;;;4.17;;
77520;SDS011;66633;47.628;19.158;2023-07-13T04:12:18;9.68;;;4.30;;
77520;SDS011;66633;47.628;19.158;2023-07-13T04:14:43;8.35;;;5.00;;
77520;SDS011;66633;47.628;19.158;2023-07-13T04:17:08;9.63;;;4.00;;
77520;SDS011;66633;47.628;19.158;2023-07-13T04:22:15;8.55;;;3.67;;
77520;SDS011;66633;47.628;19.158;2023-07-13T04:24:40;7.65;;;3.83;;
77520;SDS011;66633;47.628;19.158;2023-07-13T04:27:06;7.17;;;3.40;;
77520;SDS011;66633;47.628;19.158;2023-07-13T04:29:31;7.18;;;3.40;;
77520;SDS011;66633;47.628;19.158;2023-07-13T04:31:56;7.27;;;3.70;;
77520;SDS011;66633;47.628;19.158;2023-07-13T04:34:22;7.47;;;3.53;;
77520;SDS011;66633;47.628;19.158;2023-07-13T04:36:49;7.53;;;4.10;;
77520;SDS011;66633;47.628;19.158;2023-07-13T04:39:15;7.25;;;3.53;;
77520;SDS011;66633;47.628;19.158;2023-07-13T04:41:40;10.88;;;3.90;;
77520;SDS011;66633;47.628;19.158;2023-07-13T04:44:05;6.23;;;3.43;;
77520;SDS011;66633;47.628;19.158;2023-07-13T04:46:30;6.70;;;3.78;;
77520;SDS011;66633;47.628;19.158;2023-07-13T04:48:56;9.00;;;3.77;;
77520;SDS011;66633;47.628;19.158;2023-07-13T04:51:22;7.53;;;3.22;;
77520;SDS011;66633;47.628;19.158;2023-07-13T04:53:47;7.68;;;3.53;;
77520;SDS011;66633;47.628;19.158;2023-07-13T04:56:12;6.90;;;3.55;;
77520;SDS011;66633;47.628;19.158;2023-07-13T04:58:38;8.73;;;4.13;;
77520;SDS011;66633;47.628;19.158;2023-07-13T05:01:04;7.72;;;3.38;;
77520;SDS011;66633;47.628;19.158;2023-07-13T05:03:30;8.38;;;3.85;;
77520;SDS011;66633;47.628;19.158;2023-07-13T05:05:59;7.80;;;3.88;;
77520;SDS011;66633;47.628;19.158;2023-07-13T05:08:25;8.45;;;4.25;;
77520;SDS011;66633;47.628;19.158;2023-07-13T05:10:51;8.85;;;4.10;;
77520;SDS011;66633;47.628;19.158;2023-07-13T05:13:16;11.18;;;4.38;;
77520;SDS011;66633;47.628;19.158;2023-07-13T05:15:41;8.97;;;4.70;;
77520;SDS011;66633;47.628;19.158;2023-07-13T05:18:06;6.85;;;3.85;;
77520;SDS011;66633;47.628;19.158;2023-07-13T05:20:32;13.73;;;4.03;;
77520;SDS011;66633;47.628;19.158;2023-07-13T05:22:57;8.33;;;4.03;;
77520;SDS011;66633;47.628;19.158;2023-07-13T05:25:22;8.63;;;3.47;;
77520;SDS011;66633;47.628;19.158;2023-07-13T05:27:48;6.38;;;2.53;;
77520;SDS011;66633;47.628;19.158;2023-07-13T05:30:13;10.32;;;3.45;;
77520;SDS011;66633;47.628;19.158;2023-07-13T05:32:38;6.83;;;3.30;;
77520;SDS011;66633;47.628;19.158;2023-07-13T05:35:04;8.93;;;3.67;;
77520;SDS011;66633;47.628;19.158;2023-07-13T05:37:29;8.73;;;3.28;;
77520;SDS011;66633;47.628;19.158;2023-07-13T05:39:54;7.27;;;3.20;;
77520;SDS011;66633;47.628;19.158;2023-07-13T05:42:20;8.87;;;3.63;;
77520;SDS011;66633;47.628;19.158;2023-07-13T05:44:45;7.83;;;3.40;;
77520;SDS011;66633;47.628;19.158;2023-07-13T05:47:10;6.87;;;3.60;;
77520;SDS011;66633;47.628;19.158;2023-07-13T05:49:35;8.30;;;3.83;;
77520;SDS011;66633;47.628;19.158;2023-07-13T05:52:01;7.07;;;3.50;;
77520;SDS011;66633;47.628;19.158;2023-07-13T05:54:26;6.68;;;3.17;;
77520;SDS011;66633;47.628;19.158;2023-07-13T05:56:51;7.22;;;2.85;;
77520;SDS011;66633;47.628;19.158;2023-07-13T05:59:17;5.57;;;2.88;;
77520;SDS011;66633;47.628;19.158;2023-07-13T06:01:42;5.40;;;2.30;;
77520;SDS011;66633;47.628;19.158;2023-07-13T06:04:07;4.45;;;1.83;;
77520;SDS011;66633;47.628;19.158;2023-07-13T06:06:33;4.25;;;1.98;;
77520;SDS011;66633;47.628;19.158;2023-07-13T06:08:58;5.40;;;2.00;;
77520;SDS011;66633;47.628;19.158;2023-07-13T06:11:24;4.60;;;2.00;;
77520;SDS011;66633;47.628;19.158;2023-07-13T06:13:50;4.55;;;2.03;;
77520;SDS011;66633;47.628;19.158;2023-07-13T06:16:16;4.55;;;1.90;;
77520;SDS011;66633;47.628;19.158;2023-07-13T06:18:41;5.05;;;2.03;;
77520;SDS011;66633;47.628;19.158;2023-07-13T06:21:11;3.78;;;1.63;;
77520;SDS011;66633;47.628;19.158;2023-07-13T06:23:36;5.07;;;1.90;;
77520;SDS011;66633;47.628;19.158;2023-07-13T06:26:02;4.47;;;1.75;;
77520;SDS011;66633;47.628;19.158;2023-07-13T06:28:28;4.50;;;1.90;;
77520;SDS011;66633;47.628;19.158;2023-07-13T06:30:54;5.93;;;1.92;;
77520;SDS011;66633;47.628;19.158;2023-07-13T06:33:19;3.60;;;1.63;;
77520;SDS011;66633;47.628;19.158;2023-07-13T06:35:44;4.17;;;1.83;;
77520;SDS011;66633;47.628;19.158;2023-07-13T06:38:09;4.07;;;1.93;;
77520;SDS011;66633;47.628;19.158;2023-07-13T06:40:35;4.17;;;2.00;;
77520;SDS011;66633;47.628;19.158;2023-07-13T06:43:00;5.85;;;2.25;;
77520;SDS011;66633;47.628;19.158;2023-07-13T06:45:25;8.93;;;2.42;;
77520;SDS011;66633;47.628;19.158;2023-07-13T06:47:51;5.65;;;2.22;;
77520;SDS011;66633;47.628;19.158;2023-07-13T06:50:16;4.97;;;2.10;;
77520;SDS011;66633;47.628;19.158;2023-07-13T06:52:41;5.13;;;2.40;;
77520;SDS011;66633;47.628;19.158;2023-07-13T06:55:07;5.28;;;2.55;;
77520;SDS011;66633;47.628;19.158;2023-07-13T06:57:32;9.05;;;2.70;;
77520;SDS011;66633;47.628;19.158;2023-07-13T06:59:57;6.70;;;2.90;;
77520;SDS011;66633;47.628;19.158;2023-07-13T07:02:23;5.43;;;2.45;;
77520;SDS011;66633;47.628;19.158;2023-07-13T07:04:48;6.03;;;3.25;;
77520;SDS011;66633;47.628;19.158;2023-07-13T07:07:15;5.55;;;2.67;;
77520;SDS011;66633;47.628;19.158;2023-07-13T07:09:40;5.45;;;2.90;;
77520;SDS011;66633;47.628;19.158;2023-07-13T07:12:05;5.17;;;2.60;;
77520;SDS011;66633;47.628;19.158;2023-07-13T07:14:31;6.40;;;2.95;;
77520;SDS011;66633;47.628;19.158;2023-07-13T07:16:56;4.78;;;2.22;;
77520;SDS011;66633;47.628;19.158;2023-07-13T07:19:23;5.38;;;2.50;;
77520;SDS011;66633;47.628;19.158;2023-07-13T07:21:48;5.87;;;2.50;;
77520;SDS011;66633;47.628;19.158;2023-07-13T07:24:14;5.10;;;2.50;;
77520;SDS011;66633;47.628;19.158;2023-07-13T07:26:43;5.40;;;2.20;;
77520;SDS011;66633;47.628;19.158;2023-07-13T07:29:08;5.38;;;2.60;;
77520;SDS011;66633;47.628;19.158;2023-07-13T07:31:34;6.13;;;2.30;;
77520;SDS011;66633;47.628;19.158;2023-07-13T07:33:59;4.85;;;1.85;;
77520;SDS011;66633;47.628;19.158;2023-07-13T07:36:24;4.63;;;2.13;;
77520;SDS011;66633;47.628;19.158;2023-07-13T07:38:50;6.10;;;2.20;;
77520;SDS011;66633;47.628;19.158;2023-07-13T07:41:15;5.47;;;2.47;;
77520;SDS011;66633;47.628;19.158;2023-07-13T07:43:40;3.93;;;1.87;;
77520;SDS011;66633;47.628;19.158;2023-07-13T07:46:05;5.95;;;2.13;;
77520;SDS011;66633;47.628;19.158;2023-07-13T07:48:31;4.05;;;1.90;;
77520;SDS011;66633;47.628;19.158;2023-07-13T07:50:56;5.73;;;2.10;;
77520;SDS011;66633;47.628;19.158;2023-07-13T07:53:22;5.00;;;2.10;;
77520;SDS011;66633;47.628;19.158;2023-07-13T07:55:47;4.82;;;1.90;;
77520;SDS011;66633;47.628;19.158;2023-07-13T07:58:13;3.80;;;1.98;;
77520;SDS011;66633;47.628;19.158;2023-07-13T08:00:38;5.57;;;2.45;;
77520;SDS011;66633;47.628;19.158;2023-07-13T08:03:05;5.00;;;2.22;;
77520;SDS011;66633;47.628;19.158;2023-07-13T08:05:30;4.55;;;2.10;;
77520;SDS011;66633;47.628;19.158;2023-07-13T08:07:56;4.70;;;2.10;;
77520;SDS011;66633;47.628;19.158;2023-07-13T08:10:21;5.43;;;2.27;;
77520;SDS011;66633;47.628;19.158;2023-07-13T08:12:46;5.53;;;2.38;;
77520;SDS011;66633;47.628;19.158;2023-07-13T08:15:12;6.27;;;2.17;;
77520;SDS011;66633;47.628;19.158;2023-07-13T08:17:38;5.40;;;2.22;;
77520;SDS011;66633;47.628;19.158;2023-07-13T08:20:03;6.13;;;2.40;;
77520;SDS011;66633;47.628;19.158;2023-07-13T08:22:29;7.28;;;2.20;;
77520;SDS011;66633;47.628;19.158;2023-07-13T08:24:54;5.57;;;2.50;;
77520;SDS011;66633;47.628;19.158;2023-07-13T08:27:23;4.88;;;2.30;;
77520;SDS011;66633;47.628;19.158;2023-07-13T08:29:49;4.75;;;2.20;;
77520;SDS011;66633;47.628;19.158;2023-07-13T08:32:14;5.20;;;2.38;;
77520;SDS011;66633;47.628;19.158;2023-07-13T08:34:40;5.53;;;2.35;;
77520;SDS011;66633;47.628;19.158;2023-07-13T08:37:05;4.55;;;1.98;;
77520;SDS011;66633;47.628;19.158;2023-07-13T08:39:31;4.53;;;1.98;;
77520;SDS011;66633;47.628;19.158;2023-07-13T08:41:58;5.13;;;2.28;;
77520;SDS011;66633;47.628;19.158;2023-07-13T08:44:31;6.25;;;2.20;;
77520;SDS011;66633;47.628;19.158;2023-07-13T08:46:58;5.15;;;2.20;;
77520;SDS011;66633;47.628;19.158;2023-07-13T08:49:24;5.90;;;2.55;;
77520;SDS011;66633;47.628;19.158;2023-07-13T08:52:01;4.68;;;2.20;;
77520;SDS011;66633;47.628;19.158;2023-07-13T08:54:34;4.97;;;2.30;;
77520;SDS011;66633;47.628;19.158;2023-07-13T08:57:02;5.35;;;2.70;;
77520;SDS011;66633;47.628;19.158;2023-07-13T08:59:29;5.03;;;2.63;;
77520;SDS011;66633;47.628;19.158;2023-07-13T09:10:41;5.45;;;2.80;;
77520;SDS011;66633;47.628;19.158;2023-07-13T09:15:41;5.15;;;2.40;;
77520;SDS011;66633;47.628;19.158;2023-07-13T09:18:30;5.30;;;3.03;;
77520;SDS011;66633;47.628;19.158;2023-07-13T09:20:58;5.57;;;2.40;;
77520;SDS011;66633;47.628;19.158;2023-07-13T09:23:26;6.07;;;2.90;;
77520;SDS011;66633;47.628;19.158;2023-07-13T09:25:54;5.07;;;2.78;;
77520;SDS011;66633;47.628;19.158;2023-07-13T09:28:27;7.88;;;3.03;;
77520;SDS011;66633;47.628;19.158;2023-07-13T09:30:58;5.35;;;2.72;;
77520;SDS011;66633;47.628;19.158;2023-07-13T09:33:25;6.30;;;2.70;;
77520;SDS011;66633;47.628;19.158;2023-07-13T09:35:54;5.38;;;2.55;;
77520;SDS011;66633;47.628;19.158;2023-07-13T09:38:19;5.07;;;2.47;;
77520;SDS011;66633;47.628;19.158;2023-07-13T09:40:53;4.90;;;2.83;;
77520;SDS011;66633;47.628;19.158;2023-07-13T09:43:21;6.07;;;2.92;;
77520;SDS011;66633;47.628;19.158;2023-07-13T09:45:47;4.95;;;2.45;;
77520;SDS011;66633;47.628;19.158;2023-07-13T09:48:14;7.05;;;2.85;;
77520;SDS011;66633;47.628;19.158;2023-07-13T09:50:40;6.28;;;2.80;;
77520;SDS011;66633;47.628;19.158;2023-07-13T09:53:16;5.85;;;3.38;;
77520;SDS011;66633;47.628;19.158;2023-07-13T09:55:43;5.00;;;3.10;;
77520;SDS011;66633;47.628;19.158;2023-07-13T10:00:35;6.05;;;3.10;;
77520;SDS011;66633;47.628;19.158;2023-07-13T10:03:05;6.07;;;2.90;;
77520;SDS011;66633;47.628;19.158;2023-07-13T10:05:37;5.45;;;2.92;;
77520;SDS011;66633;47.628;19.158;2023-07-13T10:08:02;5.40;;;3.00;;
77520;SDS011;66633;47.628;19.158;2023-07-13T10:10:28;8.15;;;3.40;;
77520;SDS011;66633;47.628;19.158;2023-07-13T10:12:53;5.60;;;2.80;;
77520;SDS011;66633;47.628;19.158;2023-07-13T10:15:21;6.40;;;3.60;;
77520;SDS011;66633;47.628;19.158;2023-07-13T10:17:47;6.13;;;3.15;;
77520;SDS011;66633;47.628;19.158;2023-07-13T10:20:12;5.53;;;3.15;;
77520;SDS011;66633;47.628;19.158;2023-07-13T10:22:43;6.60;;;3.05;;
77520;SDS011;66633;47.628;19.158;2023-07-13T10:25:19;6.03;;;3.35;;
77520;SDS011;66633;47.628;19.158;2023-07-13T10:27:47;6.35;;;3.10;;
77520;SDS011;66633;47.628;19.158;2023-07-13T10:30:19;5.65;;;2.80;;
77520;SDS011;66633;47.628;19.158;2023-07-13T10:32:48;6.03;;;3.15;;
77520;SDS011;66633;47.628;19.158;2023-07-13T10:35:15;5.45;;;3.38;;
77520;SDS011;66633;47.628;19.158;2023-07-13T10:37:54;5.97;;;2.92;;
77520;SDS011;66633;47.628;19.158;2023-07-13T10:40:23;5.57;;;2.97;;
77520;SDS011;66633;47.628;19.158;2023-07-13T10:42:51;5.95;;;3.30;;
77520;SDS011;66633;47.628;19.158;2023-07-13T10:45:22;5.60;;;3.00;;
77520;SDS011;66633;47.628;19.158;2023-07-13T10:50:18;7.75;;;2.90;;
77520;SDS011;66633;47.628;19.158;2023-07-13T10:52:48;8.68;;;3.20;;
77520;SDS011;66633;47.628;19.158;2023-07-13T11:01:12;7.20;;;2.95;;
77520;SDS011;66633;47.628;19.158;2023-07-13T11:03:30;5.43;;;3.42;;
77520;SDS011;66633;47.628;19.158;2023-07-13T11:08:51;8.82;;;4.43;;
77520;SDS011;66633;47.628;19.158;2023-07-13T11:18:45;5.60;;;3.50;;
77520;SDS011;66633;47.628;19.158;2023-07-13T11:21:15;4.97;;;3.10;;
77520;SDS011;66633;47.628;19.158;2023-07-13T11:23:42;6.32;;;3.25;;
77520;SDS011;66633;47.628;19.158;2023-07-13T11:26:37;5.75;;;2.88;;
77520;SDS011;66633;47.628;19.158;2023-07-13T11:28:53;6.30;;;2.75;;
77520;SDS011;66633;47.628;19.158;2023-07-13T11:31:18;5.60;;;2.65;;
77520;SDS011;66633;47.628;19.158;2023-07-13T11:33:51;6.15;;;2.75;;
77520;SDS011;66633;47.628;19.158;2023-07-13T11:36:21;5.25;;;2.67;;
77520;SDS011;66633;47.628;19.158;2023-07-13T11:41:23;3.83;;;2.35;;
77520;SDS011;66633;47.628;19.158;2023-07-13T11:43:50;5.00;;;2.78;;
77520;SDS011;66633;47.628;19.158;2023-07-13T11:46:20;4.07;;;2.45;;
77520;SDS011;66633;47.628;19.158;2023-07-13T11:48:45;5.50;;;2.80;;
77520;SDS011;66633;47.628;19.158;2023-07-13T11:51:15;6.75;;;3.08;;
77520;SDS011;66633;47.628;19.158;2023-07-13T11:53:45;5.63;;;2.42;;
77520;SDS011;66633;47.628;19.158;2023-07-13T11:56:10;4.45;;;2.25;;
77520;SDS011;66633;47.628;19.158;2023-07-13T11:58:36;5.07;;;2.35;;
77520;SDS011;66633;47.628;19.158;2023-07-13T12:01:01;4.82;;;2.17;;
77520;SDS011;66633;47.628;19.158;2023-07-13T12:03:29;4.63;;;2.22;;
77520;SDS011;66633;47.628;19.158;2023-07-13T12:06:05;5.13;;;2.28;;
77520;SDS011;66633;47.628;19.158;2023-07-13T12:08:39;4.85;;;2.80;;
77520;SDS011;66633;47.628;19.158;2023-07-13T12:11:09;5.57;;;2.65;;
77520;SDS011;66633;47.628;19.158;2023-07-13T12:13:37;5.70;;;2.30;;
77520;SDS011;66633;47.628;19.158;2023-07-13T12:16:08;4.78;;;2.55;;
77520;SDS011;66633;47.628;19.158;2023-07-13T12:18:35;4.93;;;2.65;;
77520;SDS011;66633;47.628;19.158;2023-07-13T12:21:01;5.05;;;2.90;;
77520;SDS011;66633;47.628;19.158;2023-07-13T12:23:29;4.78;;;2.63;;
77520;SDS011;66633;47.628;19.158;2023-07-13T12:25:55;4.90;;;2.63;;
77520;SDS011;66633;47.628;19.158;2023-07-13T12:29:06;5.28;;;2.97;;
77520;SDS011;66633;47.628;19.158;2023-07-13T12:31:08;5.15;;;2.67;;
77520;SDS011;66633;47.628;19.158;2023-07-13T12:33:44;5.35;;;2.40;;
77520;SDS011;66633;47.628;19.158;2023-07-13T12:36:09;5.10;;;2.70;;
77520;SDS011;66633;47.628;19.158;2023-07-13T12:38:37;5.55;;;2.65;;
77520;SDS011;66633;47.628;19.158;2023-07-13T12:41:02;5.00;;;2.50;;
77520;SDS011;66633;47.628;19.158;2023-07-13T12:43:28;5.78;;;3.28;;
77520;SDS011;66633;47.628;19.158;2023-07-13T12:46:01;5.63;;;3.28;;
77520;SDS011;66633;47.628;19.158;2023-07-13T12:48:27;5.63;;;3.03;;
77520;SDS011;66633;47.628;19.158;2023-07-13T12:50:53;5.80;;;2.90;;
77520;SDS011;66633;47.628;19.158;2023-07-13T12:53:20;5.03;;;2.35;;
77520;SDS011;66633;47.628;19.158;2023-07-13T12:55:50;5.32;;;2.88;;
77520;SDS011;66633;47.628;19.158;2023-07-13T12:58:36;6.05;;;2.90;;
77520;SDS011;66633;47.628;19.158;2023-07-13T13:01:02;5.35;;;2.90;;
77520;SDS011;66633;47.628;19.158;2023-07-13T13:03:32;6.00;;;3.25;;
77520;SDS011;66633;47.628;19.158;2023-07-13T13:06:40;7.38;;;3.53;;
77520;SDS011;66633;47.628;19.158;2023-07-13T13:08:52;6.35;;;3.58;;
77520;SDS011;66633;47.628;19.158;2023-07-13T13:11:18;5.20;;;3.00;;
77520;SDS011;66633;47.628;19.158;2023-07-13T13:13:44;5.32;;;2.95;;
77520;SDS011;66633;47.628;19.158;2023-07-13T13:18:50;5.28;;;3.00;;
77520;SDS011;66633;47.628;19.158;2023-07-13T13:21:16;5.32;;;3.15;;
77520;SDS011;66633;47.628;19.158;2023-07-13T13:23:41;5.00;;;2.95;;
77520;SDS011;66633;47.628;19.158;2023-07-13T13:26:13;5.53;;;2.90;;
77520;SDS011;66633;47.628;19.158;2023-07-13T13:28:39;6.05;;;3.42;;
77520;SDS011;66633;47.628;19.158;2023-07-13T13:31:05;6.18;;;3.30;;
77520;SDS011;66633;47.628;19.158;2023-07-13T13:33:30;6.35;;;3.20;;
77520;SDS011;66633;47.628;19.158;2023-07-13T13:35:56;6.85;;;3.30;;
77520;SDS011;66633;47.628;19.158;2023-07-13T13:38:23;7.13;;;2.97;;
77520;SDS011;66633;47.628;19.158;2023-07-13T13:40:50;5.68;;;3.58;;
77520;SDS011;66633;47.628;19.158;2023-07-13T13:45:43;7.72;;;3.10;;
77520;SDS011;66633;47.628;19.158;2023-07-13T13:48:42;5.22;;;3.00;;
77520;SDS011;66633;47.628;19.158;2023-07-13T13:51:01;5.32;;;3.00;;
77520;SDS011;66633;47.628;19.158;2023-07-13T13:53:28;5.93;;;3.10;;
77520;SDS011;66633;47.628;19.158;2023-07-13T13:55:53;5.50;;;3.00;;
77520;SDS011;66633;47.628;19.158;2023-07-13T13:58:19;6.15;;;3.15;;
77520;SDS011;66633;47.628;19.158;2023-07-13T14:00:45;5.50;;;3.03;;
77520;SDS011;66633;47.628;19.158;2023-07-13T14:03:20;6.38;;;3.50;;
77520;SDS011;66633;47.628;19.158;2023-07-13T14:08:15;7.70;;;3.58;;
77520;SDS011;66633;47.628;19.158;2023-07-13T14:10:40;6.20;;;2.97;;
77520;SDS011;66633;47.628;19.158;2023-07-13T14:13:07;5.38;;;3.25;;
77520;SDS011;66633;47.628;19.158;2023-07-13T14:15:41;6.10;;;3.25;;
77520;SDS011;66633;47.628;19.158;2023-07-13T14:18:07;5.10;;;3.07;;
77520;SDS011;66633;47.628;19.158;2023-07-13T14:20:33;4.93;;;2.78;;
77520;SDS011;66633;47.628;19.158;2023-07-13T14:22:58;5.13;;;2.93;;
77520;SDS011;66633;47.628;19.158;2023-07-13T14:25:24;4.70;;;2.67;;
77520;SDS011;66633;47.628;19.158;2023-07-13T14:27:53;4.80;;;2.67;;
77520;SDS011;66633;47.628;19.158;2023-07-13T14:30:21;4.68;;;2.65;;
77520;SDS011;66633;47.628;19.158;2023-07-13T14:32:48;5.15;;;3.20;;
77520;SDS011;66633;47.628;19.158;2023-07-13T14:35:14;7.22;;;3.17;;
77520;SDS011;66633;47.628;19.158;2023-07-13T14:37:40;4.85;;;2.80;;
77520;SDS011;66633;47.628;19.158;2023-07-13T14:40:13;5.38;;;2.75;;
77520;SDS011;66633;47.628;19.158;2023-07-13T14:42:38;5.63;;;3.03;;
77520;SDS011;66633;47.628;19.158;2023-07-13T14:45:04;7.78;;;2.90;;
77520;SDS011;66633;47.628;19.158;2023-07-13T14:47:29;8.48;;;2.78;;
77520;SDS011;66633;47.628;19.158;2023-07-13T14:49:54;8.40;;;3.20;;
77520;SDS011;66633;47.628;19.158;2023-07-13T14:52:21;6.22;;;3.08;;
77520;SDS011;66633;47.628;19.158;2023-07-13T14:54:48;5.88;;;2.65;;
77520;SDS011;66633;47.628;19.158;2023-07-13T14:57:14;4.97;;;2.85;;
77520;SDS011;66633;47.628;19.158;2023-07-13T14:59:40;7.18;;;2.97;;
77520;SDS011;66633;47.628;19.158;2023-07-13T15:02:18;5.40;;;2.75;;
77520;SDS011;66633;47.628;19.158;2023-07-13T15:04:46;5.55;;;2.92;;
77520;SDS011;66633;47.628;19.158;2023-07-13T15:07:12;5.55;;;3.10;;
77520;SDS011;66633;47.628;19.158;2023-07-13T15:09:38;5.78;;;2.92;;
77520;SDS011;66633;47.628;19.158;2023-07-13T15:12:04;5.30;;;3.03;;
77520;SDS011;66633;47.628;19.158;2023-07-13T15:14:30;5.00;;;2.83;;
77520;SDS011;66633;47.628;19.158;2023-07-13T15:16:55;5.03;;;2.72;;
77520;SDS011;66633;47.628;19.158;2023-07-13T15:19:21;5.28;;;3.00;;